createdAt,value
2018-06-09T00:02:18.573Z,78.90
2018-06-09T00:04:47.592Z,78.80
2018-06-09T00:07:16.621Z,79.30
2018-06-09T00:09:45.960Z,79.40
2018-06-09T00:12:15.092Z,80.00
2018-06-09T00:14:45.198Z,80.30
2018-06-09T00:17:14.502Z,80.40
2018-06-09T00:19:43.602Z,80.60
2018-06-09T00:22:12.660Z,80.80
2018-06-09T00:24:41.698Z,80.80
2018-06-09T00:27:10.681Z,81.10
2018-06-09T00:29:39.665Z,81.10
2018-06-09T00:32:08.685Z,81.20
2018-06-09T00:34:37.713Z,81.20
2018-06-09T00:37:06.709Z,81.50
2018-06-09T00:39:35.728Z,81.40
2018-06-09T00:42:04.709Z,81.00
2018-06-09T00:44:33.988Z,80.90
2018-06-09T00:47:02.981Z,81.60
2018-06-09T00:49:31.981Z,80.20
2018-06-09T00:52:01.124Z,79.80
2018-06-09T00:54:30.144Z,79.30
2018-06-09T00:56:59.178Z,80.00
2018-06-09T00:59:28.203Z,81.10
2018-06-09T01:01:57.233Z,81.20
2018-06-09T01:04:26.216Z,81.20
2018-06-09T01:06:55.190Z,81.60
2018-06-09T01:09:24.217Z,82.20
2018-06-09T01:11:53.205Z,82.60
2018-06-09T01:14:22.200Z,83.00
2018-06-09T01:16:51.217Z,84.10
2018-06-09T01:19:20.200Z,84.60
2018-06-09T01:21:49.268Z,84.70
2018-06-09T01:24:18.308Z,84.80
2018-06-09T01:26:47.406Z,84.70
2018-06-09T01:29:16.541Z,85.00
2018-06-09T01:31:45.577Z,85.20
2018-06-09T01:34:14.987Z,85.30
2018-06-09T01:36:44.097Z,85.60
2018-06-09T01:39:13.188Z,86.10
2018-06-09T01:41:42.298Z,86.20
2018-06-09T01:44:11.293Z,87.30
2018-06-09T01:46:40.312Z,87.20
2018-06-09T01:49:09.301Z,87.30
2018-06-09T01:51:38.492Z,87.20
2018-06-09T01:54:07.481Z,87.20
2018-06-09T01:56:36.469Z,86.80
2018-06-09T01:59:05.484Z,87.00
2018-06-09T02:01:34.480Z,87.20
2018-06-09T02:04:03.519Z,87.60
2018-06-09T02:06:32.524Z,87.20
2018-06-09T02:09:01.552Z,87.40
2018-06-09T02:11:30.637Z,87.20
2018-06-09T02:13:59.655Z,87.60
2018-06-09T02:16:28.641Z,87.40
2018-06-09T02:18:57.903Z,87.60
2018-06-09T02:21:26.905Z,87.90
2018-06-09T02:23:55.899Z,88.90
2018-06-09T02:26:25.173Z,88.50
2018-06-09T02:28:54.165Z,89.50
2018-06-09T02:31:23.149Z,88.90
2018-06-09T02:33:52.177Z,88.20
2018-06-09T02:38:49.970Z,87.00
2018-06-09T02:41:18.997Z,86.70
2018-06-09T02:43:48.066Z,86.70
2018-06-09T02:46:17.132Z,87.00
2018-06-09T02:48:46.152Z,87.40
2018-06-09T02:51:15.571Z,87.20
2018-06-09T02:53:44.752Z,87.60
2018-06-09T02:56:13.888Z,87.60
2018-06-09T02:58:42.919Z,87.90
2018-06-09T03:01:11.933Z,87.80
2018-06-09T03:03:40.944Z,87.90
2018-06-09T03:06:09.937Z,87.40
2018-06-09T03:08:39.033Z,88.20
2018-06-09T03:11:08.053Z,89.20
2018-06-09T03:13:37.064Z,88.70
2018-06-09T03:16:06.036Z,88.80
2018-06-09T03:18:35.048Z,88.40
2018-06-09T03:21:04.401Z,87.80
2018-06-09T03:23:33.385Z,87.90
2018-06-09T03:26:02.392Z,88.10
2018-06-09T03:28:31.460Z,87.90
2018-06-09T03:31:00.459Z,88.50
2018-06-09T03:33:29.546Z,89.00
2018-06-09T03:35:58.932Z,87.40
2018-06-09T03:38:27.916Z,87.60
2018-06-09T03:40:56.905Z,88.00
2018-06-09T03:43:25.964Z,86.20
2018-06-09T03:45:54.936Z,82.90
2018-06-09T03:48:24.221Z,78.50
2018-06-09T03:50:53.209Z,75.90
2018-06-09T03:53:22.201Z,74.60
2018-06-09T03:55:51.207Z,74.10
2018-06-09T03:58:20.229Z,74.80
2018-06-09T04:00:49.248Z,75.20
2018-06-09T04:03:18.233Z,77.20
2018-06-09T04:05:47.308Z,78.00
2018-06-09T04:08:16.417Z,78.50
2018-06-09T04:10:45.609Z,79.70
2018-06-09T04:13:14.781Z,79.30
2018-06-09T04:15:43.982Z,78.40
2018-06-09T04:18:13.664Z,78.40
2018-06-09T04:20:42.709Z,77.90
2018-06-09T04:23:11.693Z,77.70
2018-06-09T04:25:40.824Z,77.00
2018-06-09T04:28:10.041Z,76.20
2018-06-09T04:30:39.117Z,76.70
2018-06-09T04:33:08.231Z,76.30
2018-06-09T04:35:37.418Z,75.80
2018-06-09T04:38:06.398Z,75.80
2018-06-09T04:40:35.381Z,75.10
2018-06-09T04:43:04.392Z,75.90
2018-06-09T04:45:33.433Z,76.40
2018-06-09T04:48:02.433Z,75.90
2018-06-09T04:50:31.685Z,76.90
2018-06-09T04:57:58.145Z,76.20
2018-06-09T05:00:27.495Z,76.10
2018-06-09T05:02:56.594Z,75.70
2018-06-09T05:05:25.581Z,76.20
2018-06-09T05:07:54.600Z,75.20
2018-06-09T05:10:23.589Z,76.20
2018-06-09T05:12:52.806Z,75.70
2018-06-09T05:15:21.812Z,73.50
2018-06-09T05:17:50.785Z,71.10
2018-06-09T05:20:20.304Z,71.00
2018-06-09T05:22:49.712Z,70.90
2018-06-09T05:25:19.081Z,69.20
2018-06-09T05:27:48.538Z,70.20
2018-06-09T05:30:18.721Z,69.90
2018-06-09T05:32:48.709Z,68.80
2018-06-09T05:35:18.434Z,67.00
2018-06-09T05:37:48.496Z,66.20
2018-06-09T05:40:18.390Z,66.00
2018-06-09T05:42:48.316Z,66.00
2018-06-09T05:45:17.824Z,64.80
2018-06-09T05:47:47.727Z,65.20
2018-06-09T05:50:17.460Z,65.90
2018-06-09T05:52:47.777Z,66.30
2018-06-09T05:55:17.493Z,66.20
2018-06-09T05:57:46.996Z,65.20
2018-06-09T06:00:16.909Z,66.20
2018-06-09T06:02:46.756Z,64.70
2018-06-09T06:05:16.835Z,66.20
2018-06-09T06:07:46.809Z,65.80
2018-06-09T06:10:17.104Z,64.20
2018-06-09T06:12:46.645Z,64.30
2018-06-09T06:15:16.501Z,64.50
2018-06-09T06:17:46.299Z,64.10
2018-06-09T06:20:16.252Z,63.10
2018-06-09T06:22:45.785Z,60.60
2018-06-09T06:25:15.346Z,61.50
2018-06-09T06:30:13.686Z,62.20
2018-06-09T06:32:42.911Z,62.20
2018-06-09T06:35:12.016Z,61.20
2018-06-09T06:37:41.029Z,57.40
2018-06-09T06:40:10.049Z,58.90
2018-06-09T06:42:39.105Z,57.40
2018-06-09T06:45:08.127Z,57.80
2018-06-09T06:47:37.432Z,56.40
2018-06-09T06:50:06.432Z,56.60
2018-06-09T06:52:35.426Z,57.50
2018-06-09T06:55:04.482Z,55.30
2018-06-09T06:57:33.497Z,55.50
2018-06-09T07:00:02.733Z,55.10
2018-06-09T07:02:31.761Z,54.50
2018-06-09T07:05:00.754Z,54.70
2018-06-09T07:07:29.773Z,54.80
2018-06-09T07:09:59.791Z,54.60
2018-06-09T07:12:28.852Z,54.30
2018-06-09T07:14:57.872Z,52.30
2018-06-09T07:17:26.932Z,51.80
2018-06-09T07:19:55.957Z,50.90
2018-06-09T07:22:25.233Z,51.00
2018-06-09T07:24:54.226Z,51.20
2018-06-09T07:27:23.235Z,51.30
2018-06-09T07:29:52.257Z,50.90
2018-06-09T07:32:21.325Z,51.80
2018-06-09T07:34:50.303Z,48.80
2018-06-09T07:37:19.336Z,49.70
2018-06-09T07:39:48.381Z,49.30
2018-06-09T07:42:17.497Z,49.90
2018-06-09T07:44:46.648Z,48.90
2018-06-09T07:47:15.764Z,50.30
2018-06-09T07:49:44.854Z,48.70
2018-06-09T07:52:14.084Z,48.90
2018-06-09T07:54:43.125Z,49.70
2018-06-09T07:57:12.508Z,49.80
2018-06-09T07:59:41.623Z,50.30
2018-06-09T08:02:10.625Z,50.20
2018-06-09T08:04:39.725Z,49.20
2018-06-09T08:07:08.713Z,49.50
2018-06-09T08:09:37.736Z,49.20
2018-06-09T08:12:06.713Z,50.00
2018-06-09T08:14:35.697Z,48.90
2018-06-09T08:17:04.717Z,50.50
2018-06-09T08:19:33.755Z,49.70
2018-06-09T08:22:02.872Z,50.20
2018-06-09T08:24:31.882Z,50.10
2018-06-09T08:27:00.925Z,48.80
2018-06-09T08:29:29.940Z,49.30
2018-06-09T08:31:58.920Z,48.90
2018-06-09T08:34:28.164Z,49.50
2018-06-09T08:36:57.215Z,50.10
2018-06-09T08:39:26.215Z,50.10
2018-06-09T08:41:55.249Z,51.10
2018-06-09T08:44:24.233Z,51.40
2018-06-09T08:49:22.628Z,49.80
2018-06-09T08:51:51.625Z,51.20
2018-06-09T08:54:20.596Z,49.50
2018-06-09T08:56:49.987Z,50.50
2018-06-09T08:59:19.105Z,50.70
2018-06-09T09:01:48.130Z,51.00
2018-06-09T09:04:17.249Z,49.50
2018-06-09T09:06:46.548Z,49.20
2018-06-09T09:09:15.771Z,49.80
2018-06-09T09:11:44.821Z,48.80
2018-06-09T09:14:13.932Z,48.00
2018-06-09T09:16:43.033Z,47.60
2018-06-09T09:19:12.080Z,48.60
2018-06-09T09:21:41.114Z,47.80
2018-06-09T09:24:10.127Z,45.90
2018-06-09T09:26:39.117Z,47.50
2018-06-09T09:29:08.261Z,46.30
2018-06-09T09:31:37.241Z,47.30
2018-06-09T09:34:06.225Z,47.20
2018-06-09T09:36:35.329Z,47.00
2018-06-09T09:39:07.564Z,47.40
2018-06-09T09:41:36.936Z,44.90
2018-06-09T09:44:06.127Z,46.80
2018-06-09T09:46:35.193Z,45.20
2018-06-09T09:49:04.449Z,45.60
2018-06-09T09:51:33.610Z,44.90
2018-06-09T09:54:02.800Z,46.20
2018-06-09T09:56:32.059Z,46.10
2018-06-09T09:59:01.053Z,46.10
2018-06-09T10:01:30.177Z,46.50
2018-06-09T10:03:59.169Z,47.80
2018-06-09T10:06:28.151Z,44.80
2018-06-09T10:08:57.561Z,44.80
2018-06-09T10:11:26.544Z,44.60
2018-06-09T10:13:55.848Z,44.80
2018-06-09T10:16:25.244Z,44.00
2018-06-09T10:18:54.428Z,45.40
2018-06-09T10:21:23.427Z,44.70
2018-06-09T10:26:21.128Z,43.10
2018-06-09T10:28:50.198Z,44.50
2018-06-09T10:31:19.532Z,43.80
2018-06-09T10:33:48.693Z,43.30
2018-06-09T10:36:17.910Z,43.40
2018-06-09T10:38:47.222Z,43.10
2018-06-09T10:41:16.352Z,44.20
2018-06-09T10:43:45.480Z,43.50
2018-06-09T10:46:14.629Z,42.70
2018-06-09T10:48:43.757Z,42.10
2018-06-09T10:51:19.810Z,42.10
2018-06-09T10:53:48.848Z,41.50
2018-06-09T10:56:17.847Z,40.70
2018-06-09T10:58:46.912Z,42.20
2018-06-09T11:01:16.011Z,40.60
2018-06-09T11:03:45.825Z,40.20
2018-06-09T11:06:14.883Z,40.10
2018-06-09T11:11:13.049Z,41.80
2018-06-09T11:13:42.139Z,43.30
2018-06-09T11:16:11.345Z,40.90
2018-06-09T11:18:40.373Z,40.90
2018-06-09T11:21:09.637Z,40.80
2018-06-09T11:23:38.772Z,39.70
2018-06-09T11:26:08.072Z,38.70
2018-06-09T11:28:37.106Z,40.10
2018-06-09T11:31:06.387Z,41.70
2018-06-09T11:33:35.709Z,41.40
2018-06-09T11:36:04.909Z,40.50
2018-06-09T11:38:34.220Z,38.70
2018-06-09T11:41:03.413Z,38.70
2018-06-09T11:43:33.145Z,38.10
2018-06-09T11:46:02.323Z,39.40
2018-06-09T11:48:31.504Z,40.60
2018-06-09T11:51:00.637Z,39.60
2018-06-09T11:53:29.693Z,39.00
2018-06-09T11:55:58.736Z,40.20
2018-06-09T11:58:28.152Z,40.40
2018-06-09T12:00:57.133Z,40.00
2018-06-09T12:03:26.799Z,39.10
2018-06-09T12:05:56.884Z,39.70
2018-06-09T12:08:25.949Z,40.50
2018-06-09T12:10:55.276Z,38.90
2018-06-09T12:13:24.509Z,39.50
2018-06-09T12:15:54.213Z,39.30
2018-06-09T12:18:24.107Z,38.00
2018-06-09T12:20:53.353Z,36.70
2018-06-09T12:23:22.341Z,36.30
2018-06-09T12:25:51.370Z,38.80
2018-06-09T12:30:49.190Z,37.40
2018-06-09T12:33:18.604Z,37.40
2018-06-09T12:35:48.013Z,36.40
2018-06-09T12:38:18.351Z,37.90
2018-06-09T12:40:47.856Z,38.20
2018-06-09T12:43:19.203Z,38.10
2018-06-09T12:45:48.429Z,37.60
2018-06-09T12:48:17.700Z,39.30
2018-06-09T12:50:47.101Z,37.10
2018-06-09T12:53:16.436Z,37.00
2018-06-09T12:55:45.829Z,36.70
2018-06-09T12:58:15.224Z,37.20
2018-06-09T13:00:45.052Z,37.60
2018-06-09T13:03:14.580Z,36.40
2018-06-09T13:05:43.946Z,36.50
2018-06-09T13:08:13.709Z,36.30
2018-06-09T13:10:43.073Z,36.80
2018-06-09T13:13:12.114Z,37.10
2018-06-09T13:15:41.149Z,36.90
2018-06-09T13:18:10.144Z,36.70
2018-06-09T13:20:39.173Z,37.20
2018-06-09T13:23:08.188Z,35.10
2018-06-09T13:25:37.185Z,35.70
2018-06-09T13:28:06.748Z,38.10
2018-06-09T13:30:35.782Z,36.10
2018-06-09T13:33:04.797Z,38.10
2018-06-09T13:35:33.792Z,35.90
2018-06-09T13:38:02.808Z,36.80
2018-06-09T13:40:32.089Z,35.40
2018-06-09T13:43:01.550Z,37.10
2018-06-09T13:45:30.769Z,36.70
2018-06-09T13:48:00.072Z,36.60
2018-06-09T13:50:29.304Z,36.50
2018-06-09T13:52:58.922Z,36.90
2018-06-09T13:55:28.554Z,36.80
2018-06-09T13:57:57.579Z,37.30
2018-06-09T14:00:26.794Z,36.70
2018-06-09T14:02:56.149Z,35.30
2018-06-09T14:05:25.148Z,36.90
2018-06-09T14:07:54.134Z,34.90
2018-06-09T14:12:51.924Z,36.40
2018-06-09T14:15:20.917Z,34.80
2018-06-09T14:17:50.385Z,35.70
2018-06-09T14:20:19.378Z,35.90
2018-06-09T14:22:48.416Z,36.20
2018-06-09T14:25:17.617Z,35.20
2018-06-09T14:27:46.774Z,36.40
2018-06-09T14:30:16.281Z,34.10
2018-06-09T14:32:46.040Z,34.30
2018-06-09T14:35:15.081Z,35.10
2018-06-09T14:37:44.964Z,35.90
2018-06-09T14:40:14.225Z,36.20
2018-06-09T14:42:43.492Z,35.40
2018-06-09T14:45:13.427Z,33.90
2018-06-09T14:47:43.281Z,34.70
2018-06-09T14:50:13.540Z,34.40
2018-06-09T14:52:43.071Z,33.10
2018-06-09T14:55:12.961Z,33.70
2018-06-09T14:57:42.317Z,32.90
2018-06-09T15:00:12.039Z,33.20
2018-06-09T15:02:41.679Z,31.70
2018-06-09T15:05:10.921Z,30.50
2018-06-09T15:07:40.675Z,30.30
2018-06-09T15:10:09.997Z,29.90
2018-06-09T15:12:39.563Z,29.00
2018-06-09T15:15:08.729Z,28.20
2018-06-09T15:17:37.711Z,27.70
2018-06-09T15:20:06.713Z,26.30
2018-06-09T15:22:35.792Z,25.60
2018-06-09T15:25:04.814Z,25.50
2018-06-09T15:27:33.796Z,24.40
2018-06-09T15:30:02.789Z,25.20
2018-06-09T15:32:31.809Z,27.00
2018-06-09T15:35:01.225Z,26.50
2018-06-09T15:37:30.523Z,27.60
2018-06-09T15:39:59.861Z,27.50
2018-06-09T15:42:29.117Z,26.70
2018-06-09T15:44:58.188Z,25.80
2018-06-09T15:47:27.159Z,25.40
2018-06-09T15:49:56.450Z,26.00
2018-06-09T15:52:25.441Z,24.60
2018-06-09T15:54:54.504Z,24.20
2018-06-09T15:57:23.653Z,26.60
2018-06-09T15:59:52.718Z,27.20
2018-06-09T16:02:21.925Z,27.60
2018-06-09T16:04:50.908Z,26.90
2018-06-09T16:09:48.917Z,26.20
2018-06-09T16:12:17.905Z,25.80
2018-06-09T16:14:47.467Z,26.00
2018-06-09T16:17:16.593Z,26.00
2018-06-09T16:19:46.203Z,26.50
2018-06-09T16:22:15.488Z,26.60
2018-06-09T16:27:13.761Z,26.80
2018-06-09T16:29:43.050Z,26.50
2018-06-09T16:32:13.005Z,27.00
2018-06-09T16:34:42.490Z,27.30
2018-06-09T16:37:12.196Z,28.10
2018-06-09T16:39:41.431Z,27.70
2018-06-09T16:42:13.745Z,29.00
2018-06-09T16:44:43.448Z,29.30
2018-06-09T16:47:13.600Z,30.00
2018-06-09T16:49:43.141Z,31.40
2018-06-09T16:52:12.476Z,32.10
2018-06-09T16:54:41.752Z,33.30
2018-06-09T16:57:12.606Z,33.90
2018-06-09T16:59:42.274Z,34.00
2018-06-09T17:02:11.514Z,33.70
2018-06-09T17:04:41.147Z,34.00
2018-06-09T17:07:10.742Z,34.70
2018-06-09T17:09:40.005Z,35.40
2018-06-09T17:12:09.623Z,34.80
2018-06-09T17:14:38.970Z,35.00
2018-06-09T17:17:08.037Z,35.90
2018-06-09T17:22:05.759Z,35.60
2018-06-09T17:24:34.733Z,36.40
2018-06-09T17:27:03.764Z,36.90
2018-06-09T17:29:33.289Z,36.30
2018-06-09T17:32:02.338Z,37.00
2018-06-09T17:34:31.400Z,36.20
2018-06-09T17:37:00.739Z,37.70
2018-06-09T17:39:30.391Z,37.40
2018-06-09T17:41:59.504Z,36.90
2018-06-09T17:44:29.290Z,36.50
2018-06-09T17:46:58.665Z,36.50
2018-06-09T17:49:27.669Z,36.00
2018-06-09T17:51:56.692Z,35.90
2018-06-09T17:54:25.740Z,36.00
2018-06-09T17:56:54.766Z,34.00
2018-06-09T17:59:23.993Z,34.10
2018-06-09T18:01:53.271Z,34.30
2018-06-09T18:04:22.369Z,35.10
2018-06-09T18:06:51.475Z,36.60
2018-06-09T18:09:20.474Z,36.30
2018-06-09T18:11:49.510Z,37.50
2018-06-09T18:14:18.579Z,39.80
2018-06-09T18:16:48.015Z,41.20
2018-06-09T18:19:17.355Z,41.10
2018-06-09T18:21:47.298Z,41.10
2018-06-09T18:24:16.473Z,43.10
2018-06-09T18:26:46.472Z,45.80
2018-06-09T18:29:16.097Z,48.00
2018-06-09T18:31:45.265Z,50.30
2018-06-09T18:34:14.733Z,52.10
2018-06-09T18:36:44.166Z,53.80
2018-06-09T18:39:13.513Z,55.40
2018-06-09T18:41:42.641Z,56.60
2018-06-09T18:44:11.755Z,57.60
2018-06-09T18:46:41.276Z,58.90
2018-06-09T18:49:10.602Z,60.00
2018-06-09T18:51:39.780Z,61.30
2018-06-09T18:54:08.850Z,62.10
2018-06-09T18:56:37.882Z,63.00
2018-06-09T18:59:06.913Z,63.60
2018-06-09T19:01:35.896Z,64.60
2018-06-09T19:04:05.234Z,65.40
2018-06-09T19:06:34.449Z,65.30
2018-06-09T19:09:03.696Z,66.30
2018-06-09T19:11:32.699Z,67.40
2018-06-09T19:14:02.211Z,68.80
2018-06-09T19:16:31.615Z,68.70
2018-06-09T19:19:01.392Z,69.00
2018-06-09T19:21:30.541Z,69.80
2018-06-09T19:23:59.604Z,69.40
2018-06-09T19:26:28.940Z,70.00
2018-06-09T19:29:00.338Z,70.70
2018-06-09T19:31:29.548Z,71.50
2018-06-09T19:33:59.085Z,71.70
2018-06-09T19:36:28.150Z,71.70
2018-06-09T19:38:57.244Z,71.60
2018-06-09T19:41:26.297Z,71.70
2018-06-09T19:43:55.377Z,71.70
2018-06-09T19:46:24.376Z,72.40
2018-06-09T19:48:53.477Z,73.00
2018-06-09T19:51:22.464Z,72.70
2018-06-09T19:53:52.381Z,73.20
2018-06-09T19:56:21.443Z,73.60
2018-06-09T19:58:50.490Z,74.00
2018-06-09T20:01:19.722Z,74.00
2018-06-09T20:03:48.741Z,74.10
2018-06-09T20:06:17.768Z,74.60
2018-06-09T20:08:47.370Z,75.40
2018-06-09T20:11:16.620Z,76.20
2018-06-09T20:13:47.830Z,77.50
2018-06-09T20:18:46.984Z,78.70
2018-06-09T20:21:17.021Z,79.30
2018-06-09T20:23:46.597Z,79.00
2018-06-09T20:26:16.191Z,79.10
2018-06-09T20:28:46.190Z,79.30
2018-06-09T20:31:19.395Z,79.20
2018-06-09T20:33:49.056Z,79.20
2018-06-09T20:36:18.352Z,79.20
2018-06-09T20:38:48.467Z,80.30
2018-06-09T20:41:17.501Z,80.80
2018-06-09T20:43:46.590Z,81.40
2018-06-09T20:46:16.020Z,82.10
2018-06-09T20:48:45.397Z,83.00
2018-06-09T20:51:14.540Z,83.40
2018-06-09T20:53:43.745Z,83.50
2018-06-09T20:56:12.837Z,83.50
2018-06-09T20:58:42.089Z,84.10
2018-06-09T21:01:11.467Z,84.10
2018-06-09T21:03:40.548Z,84.40
2018-06-09T21:06:10.248Z,84.70
2018-06-09T21:08:39.585Z,84.90
2018-06-09T21:11:08.797Z,85.40
2018-06-09T21:13:37.872Z,86.00
2018-06-09T21:16:06.924Z,86.80
2018-06-09T21:18:35.924Z,87.30
2018-06-09T21:21:04.965Z,87.40
2018-06-09T21:23:34.234Z,87.40
2018-06-09T21:26:03.354Z,87.70
2018-06-09T21:28:37.852Z,88.20
2018-06-09T21:31:12.303Z,88.70
2018-06-09T21:33:58.321Z,89.40
2018-06-09T21:36:29.952Z,89.90
2018-06-09T21:39:00.014Z,90.50
2018-06-09T21:41:34.776Z,90.70
2018-06-09T21:44:09.591Z,90.90
2018-06-09T21:46:45.402Z,91.20
2018-06-09T21:49:15.429Z,91.40
2018-06-09T21:51:44.664Z,91.60
2018-06-09T21:54:13.777Z,91.50
2018-06-09T21:56:43.020Z,91.40
2018-06-09T21:59:12.313Z,91.30
2018-06-09T22:01:41.501Z,91.40
2018-06-09T22:04:10.894Z,91.30
2018-06-09T22:06:40.090Z,91.70
2018-06-09T22:09:09.415Z,92.20
2018-06-09T22:11:38.530Z,91.60
2018-06-09T22:14:07.542Z,91.10
2018-06-09T22:16:36.568Z,91.60
2018-06-09T22:19:05.620Z,92.50
2018-06-09T22:21:34.648Z,92.90
2018-06-09T22:24:03.682Z,92.30
2018-06-09T22:26:32.709Z,92.20
2018-06-09T22:29:01.710Z,92.20
2018-06-09T22:31:30.695Z,91.90
2018-06-09T22:34:01.074Z,91.70
2018-06-09T22:36:30.369Z,91.70
2018-06-09T22:38:59.412Z,91.80
2018-06-09T22:41:28.617Z,92.00
2018-06-09T22:43:58.289Z,91.80
2018-06-09T22:46:27.696Z,91.80
2018-06-09T22:48:56.969Z,91.80
2018-06-09T22:51:26.124Z,92.30
2018-06-09T22:53:55.152Z,92.40
2018-06-09T22:56:24.389Z,92.20
2018-06-09T22:58:53.421Z,92.20
2018-06-09T23:01:22.417Z,92.30
2018-06-09T23:03:51.477Z,92.20
2018-06-09T23:06:20.482Z,92.30
2018-06-09T23:11:18.188Z,92.30
2018-06-09T23:13:47.271Z,91.50
2018-06-09T23:18:45.017Z,91.50
2018-06-09T23:21:14.060Z,91.20
2018-06-09T23:23:43.257Z,91.50
2018-06-09T23:26:12.462Z,91.60
2018-06-09T23:28:41.562Z,91.40
2018-06-09T23:31:10.774Z,91.60
2018-06-09T23:33:39.786Z,91.80
2018-06-09T23:36:08.916Z,92.30
2018-06-09T23:38:37.921Z,92.40
2018-06-09T23:41:06.924Z,92.40
2018-06-09T23:43:35.944Z,92.90
2018-06-09T23:46:04.950Z,93.30
2018-06-09T23:48:34.006Z,93.80
2018-06-09T23:51:03.034Z,93.50
2018-06-09T23:53:32.023Z,93.20
2018-06-09T23:56:01.025Z,93.10
2018-06-09T23:58:30.057Z,93.50
